Time;durP1;ratioP1;P1;durP2;ratioP2;P2;SDS_P1;SDS_P2;PMS_P1;PMS_P2;Temp;Humidity;BMP_temperature;BMP_pressure;BME280_temperature;BME280_humidity;BME280_pressure;Samples;Min_cycle;Max_cycle;Signal;HPM_P1;HPM_P2
2023/03/23 00:01:36;;;;;;;47.47;32.47;;;;;;;9.22;89.72;97727.50;10452828;28;20126;-53
2023/03/23 00:06:36;;;;;;;51.70;37.53;;;;;;;9.10;90.14;97729.19;10447878;28;20070;-53
2023/03/23 00:11:35;;;;;;;50.08;34.05;;;;;;;9.10;90.25;97733.50;10446254;28;20071;-53
2023/03/23 00:16:37;;;;;;;42.10;30.23;;;;;;;9.11;90.58;97732.63;10466294;28;20123;-53
2023/03/23 00:21:38;;;;;;;41.92;29.13;;;;;;;8.93;90.50;97721.34;10449740;28;20064;-53
2023/03/23 00:26:40;;;;;;;45.88;29.75;;;;;;;8.67;91.15;97703.09;10452074;28;20466;-53
2023/03/23 00:31:40;;;;;;;41.95;27.63;;;;;;;8.78;91.62;97726.44;10450955;28;20063;-53
2023/03/23 00:36:44;;;;;;;129.43;75.20;;;;;;;8.73;91.37;97725.53;10452061;28;20056;-52
2023/03/23 00:41:44;;;;;;;126.72;79.82;;;;;;;8.69;91.49;97731.53;10451731;28;20075;-53
2023/03/23 00:46:48;;;;;;;109.05;69.03;;;;;;;8.63;90.99;97721.19;10449838;28;20079;-54
2023/03/23 00:51:47;;;;;;;110.18;65.35;;;;;;;8.56;90.86;97719.41;10447894;28;20076;-54
2023/03/23 00:56:46;;;;;;;90.25;49.40;;;;;;;8.38;91.38;97721.00;10444891;28;20034;-53
2023/03/23 01:01:46;;;;;;;94.40;52.97;;;;;;;8.29;91.89;97720.94;10447018;28;20056;-53
2023/03/23 01:06:50;;;;;;;94.00;47.35;;;;;;;8.23;92.25;97724.34;10447958;28;20519;-53
2023/03/23 01:11:50;;;;;;;174.38;70.20;;;;;;;8.21;93.00;97722.59;10447530;28;20075;-54
2023/03/23 01:16:50;;;;;;;124.03;55.80;;;;;;;8.19;93.19;97721.72;10448374;28;20136;-53
2023/03/23 01:21:49;;;;;;;;;;;;;;;8.26;93.32;97718.34;10446667;28;20772;-52
2023/03/23 01:26:48;;;;;;;131.32;63.80;;;;;;;8.22;94.64;97725.19;10445810;28;20301;-52
2023/03/23 01:31:47;;;;;;;110.45;57.65;;;;;;;8.25;94.44;97729.53;10448014;28;20131;-52
2023/03/23 01:36:46;;;;;;;96.80;51.25;;;;;;;8.36;94.41;97724.44;10446065;28;20020;-52
2023/03/23 01:41:45;;;;;;;80.97;48.17;;;;;;;8.50;94.26;97731.47;10445612;28;20123;-53
2023/03/23 01:46:44;;;;;;;72.68;43.22;;;;;;;8.59;93.70;97715.09;10446866;28;20107;-52
2023/03/23 01:51:48;;;;;;;68.38;40.63;;;;;;;8.62;93.72;97709.97;10446357;28;20063;-53
2023/03/23 01:57:11;;;;;;;57.80;37.10;;;;;;;8.69;93.97;97716.91;10443707;28;20103;-53
2023/03/23 02:02:10;;;;;;;69.28;43.50;;;;;;;8.82;93.33;97712.66;10446601;28;20067;-53
2023/03/23 02:07:12;;;;;;;91.68;45.85;;;;;;;8.87;93.50;97716.13;10443332;28;20111;-53
2023/03/23 02:12:12;;;;;;;90.78;47.78;;;;;;;8.81;93.21;97708.34;10443785;28;20107;-52
2023/03/23 02:17:23;;;;;;;95.85;50.58;;;;;;;8.77;92.80;97714.38;10445439;28;20143;-53
2023/03/23 02:22:55;;;;;;;92.57;48.30;;;;;;;8.74;93.23;97719.53;10437372;28;20257;-53
2023/03/23 02:28:13;;;;;;;100.43;51.47;;;;;;;8.78;92.91;97713.50;10443181;28;20076;-52
2023/03/23 02:33:15;;;;;;;92.82;46.25;;;;;;;8.81;92.65;97726.47;10443620;28;20420;-53
2023/03/23 02:38:17;;;;;;;88.55;44.85;;;;;;;8.79;92.33;97723.00;10445847;28;20519;-53
2023/03/23 02:43:22;;;;;;;88.15;43.70;;;;;;;8.70;92.54;97718.63;10443628;28;20477;-53
2023/03/23 02:48:26;;;;;;;82.85;42.55;;;;;;;8.70;92.79;97722.94;10443965;28;20075;-52
2023/03/23 02:53:28;;;;;;;81.15;43.15;;;;;;;8.71;92.84;97719.50;10444906;28;20107;-53
2023/03/23 02:58:27;;;;;;;85.70;45.97;;;;;;;8.82;92.71;97733.34;10444256;28;20067;-53
2023/03/23 03:03:27;;;;;;;;;;;;;;;8.84;92.48;97734.25;10444827;28;20059;-54
2023/03/23 03:09:02;;;;;;;76.40;42.50;;;;;;;8.73;92.98;97735.88;10443612;28;19951;-54
2023/03/23 03:14:06;;;;;;;77.28;42.40;;;;;;;8.75;93.08;97752.28;10446509;28;20114;-53
2023/03/23 03:19:15;;;;;;;78.78;46.58;;;;;;;8.58;93.47;97741.84;10453166;28;20058;-53
2023/03/23 03:24:18;;;;;;;71.13;41.87;;;;;;;8.55;93.47;97751.28;10452097;28;20131;-53
2023/03/23 03:29:22;;;;;;;58.45;32.03;;;;;;;8.49;93.36;97754.72;10451430;28;20481;-52
2023/03/23 03:34:23;;;;;;;56.75;32.78;;;;;;;8.44;93.19;97757.25;10450591;28;20524;-53
2023/03/23 03:39:22;;;;;;;57.15;35.10;;;;;;;7.05;93.11;97519.28;10451126;28;20610;-53
2023/03/23 03:44:21;;;;;;;71.93;38.05;;;;;;;8.64;92.94;97754.81;10452227;28;20095;-52
2023/03/23 03:49:20;;;;;;;;;;;;;;;8.75;92.98;97752.28;10451754;28;20066;-53
2023/03/23 03:54:19;;;;;;;73.00;39.90;;;;;;;8.82;92.79;97742.84;10451383;28;19926;-54
2023/03/23 03:59:18;;;;;;;72.28;41.72;;;;;;;8.86;92.50;97745.47;10451077;28;20074;-53
2023/03/23 04:04:17;;;;;;;78.78;43.83;;;;;;;8.86;92.60;97740.28;10449391;28;20044;-52
2023/03/23 04:09:16;;;;;;;78.78;45.60;;;;;;;8.78;92.32;97744.53;10449044;28;20042;-54
2023/03/23 04:14:15;;;;;;;71.18;42.60;;;;;;;8.76;92.79;97743.66;10448852;28;20469;-52
2023/03/23 04:19:14;;;;;;;78.43;42.88;;;;;;;8.86;92.68;97750.66;10449516;28;20583;-53
2023/03/23 04:24:13;;;;;;;72.40;42.00;;;;;;;8.99;92.60;97742.94;10450047;28;20036;-53
2023/03/23 04:29:12;;;;;;;83.32;41.47;;;;;;;9.02;92.00;97745.53;10467160;27;20111;-54
2023/03/23 04:34:13;;;;;;;73.88;41.47;;;;;;;9.05;91.77;97753.34;10451432;28;20114;-53
2023/03/23 04:39:13;;;;;;;72.57;40.42;;;;;;;8.75;92.08;97705.72;10479549;28;20080;-53
2023/03/23 04:44:17;;;;;;;79.35;43.53;;;;;;;9.00;91.94;97747.28;10452259;28;20071;-54
2023/03/23 04:49:21;;;;;;;91.38;46.00;;;;;;;8.91;92.20;97754.13;10451524;28;20133;-53
2023/03/23 04:54:20;;;;;;;92.55;48.05;;;;;;;8.88;92.12;97759.28;10450927;28;20071;-54
2023/03/23 04:59:18;;;;;;;81.80;49.65;;;;;;;8.94;92.05;97751.53;10450434;28;20034;-53
2023/03/23 05:04:17;;;;;;;91.90;53.85;;;;;;;8.94;91.98;97756.72;10448912;28;20473;-52
2023/03/23 05:09:17;;;;;;;81.97;48.00;;;;;;;8.91;91.93;97759.28;10447494;28;20505;-52
2023/03/23 05:14:16;;;;;;;;;;;;;;;9.00;92.28;97765.38;10459527;28;20098;-52
2023/03/23 05:19:15;;;;;;;63.63;40.10;;;;;;;9.04;92.13;97739.50;10446860;28;19920;-52
2023/03/23 05:24:14;;;;;;;61.55;37.97;;;;;;;9.37;91.34;97774.19;10446233;28;20059;-52
2023/03/23 05:29:13;;;;;;;60.50;38.38;;;;;;;9.50;91.10;97772.53;10449684;28;20131;-52
2023/03/23 05:34:11;;;;;;;59.38;37.10;;;;;;;9.24;90.00;97707.69;10447071;28;20115;-52
2023/03/23 05:39:12;;;;;;;50.95;35.17;;;;;;;9.79;89.75;97777.78;10448341;28;20028;-52
2023/03/23 05:44:13;;;;;;;55.50;35.60;;;;;;;9.96;90.08;97786.50;10447650;28;20519;-52
2023/03/23 05:49:12;;;;;;;47.50;31.88;;;;;;;10.14;89.10;97788.25;10447269;28;20481;-52
2023/03/23 05:54:11;;;;;;;;;;;;;;;10.34;87.14;97793.44;10473467;28;20071;-53
2023/03/23 05:59:11;;;;;;;41.55;29.00;;;;;;;10.45;86.10;97798.66;10455067;28;19920;-52
2023/03/23 06:04:11;;;;;;;55.63;38.92;;;;;;;10.46;85.60;97797.78;10460087;28;20064;-52
2023/03/23 06:09:11;;;;;;;47.53;32.83;;;;;;;10.63;85.42;97800.34;10447365;28;20075;-52
2023/03/23 06:14:10;;;;;;;58.22;38.63;;;;;;;10.67;85.14;97803.81;10461249;28;20075;-52
2023/03/23 06:19:09;;;;;;;61.83;41.70;;;;;;;10.49;85.24;97761.44;10476868;28;20889;-52
2023/03/23 06:24:08;;;;;;;57.20;38.95;;;;;;;10.62;84.92;97825.44;10485247;28;20583;-52
2023/03/23 06:29:11;;;;;;;64.18;41.60;;;;;;;10.55;84.84;97825.44;10449109;28;20071;-52
2023/03/23 06:34:10;;;;;;;68.93;42.05;;;;;;;10.63;85.37;97821.13;10447562;28;20498;-52
2023/03/23 06:39:09;;;;;;;68.80;41.10;;;;;;;10.80;85.09;97815.94;10445598;28;20551;-53
2023/03/23 06:44:12;;;;;;;59.58;37.88;;;;;;;10.86;84.34;97821.09;10485277;28;20050;-51
2023/03/23 06:49:11;;;;;;;57.10;37.60;;;;;;;10.95;83.47;97820.28;10488698;28;20067;-52
2023/03/23 06:54:10;;;;;;;58.28;36.65;;;;;;;11.34;83.92;97827.13;10448197;28;20119;-52
2023/03/23 06:59:10;;;;;;;56.63;36.90;;;;;;;11.79;83.33;97834.75;10473281;28;20043;-53
2023/03/23 07:04:09;;;;;;;55.65;37.20;;;;;;;12.31;81.52;97826.66;10480815;28;20063;-53
2023/03/23 07:09:08;;;;;;;49.95;35.67;;;;;;;12.59;79.05;97844.69;10488574;28;20024;-54
2023/03/23 07:14:07;;;;;;;49.92;33.05;;;;;;;12.55;77.60;97837.78;10456352;28;20031;-53
2023/03/23 07:19:05;;;;;;;;;;;;;;;12.87;78.80;97846.19;10447258;28;20052;-54
2023/03/23 07:24:05;;;;;;;48.50;29.45;;;;;;;13.10;74.98;97848.59;10446627;28;19951;-53
2023/03/23 07:29:04;;;;;;;45.13;29.02;;;;;;;13.22;73.80;97846.75;10446327;28;20075;-53
2023/03/23 07:34:02;;;;;;;;;;;;;;;13.26;75.38;97838.88;10486764;28;20023;-54
2023/03/23 07:39:01;;;;;;;40.22;28.55;;;;;;;13.39;74.47;97849.16;10446092;28;20365;-54
2023/03/23 07:44:00;;;;;;;;;;;;;;;13.50;73.41;97856.00;10486237;28;20031;-52
2023/03/23 07:49:00;;;;;;;42.72;28.02;;;;;;;13.61;73.81;97852.41;10451658;28;19919;-52
2023/03/23 07:53:59;;;;;;;36.05;25.20;;;;;;;13.63;72.61;97861.94;10481931;28;20074;-52
2023/03/23 07:58:58;;;;;;;36.50;24.65;;;;;;;13.79;71.33;97854.81;10493731;28;20063;-53
2023/03/23 08:03:57;;;;;;;;;;;;;;;13.92;70.79;97853.78;10487697;28;20090;-52
2023/03/23 08:08:56;;;;;;;35.20;24.10;;;;;;;13.85;69.21;97857.34;10483760;28;19963;-52
2023/03/23 08:13:56;;;;;;;32.17;21.83;;;;;;;14.02;67.95;97859.75;10449125;28;20083;-53
2023/03/23 08:18:55;;;;;;;27.27;20.17;;;;;;;13.76;65.89;97852.25;10450038;28;20099;-53
2023/03/23 08:23:53;;;;;;;;;;;;;;;14.10;69.08;97854.41;10451318;28;20096;-53
2023/03/23 08:28:53;;;;;;;29.88;21.58;;;;;;;14.22;64.57;97869.94;10451593;28;19920;-54
2023/03/23 08:33:53;;;;;;;29.75;20.23;;;;;;;14.23;64.70;97855.13;10492914;28;20106;-53
2023/03/23 08:38:52;;;;;;;24.27;17.15;;;;;;;14.36;63.54;97862.75;10465240;28;20071;-53
2023/03/23 08:43:52;;;;;;;27.00;19.20;;;;;;;14.52;64.00;97859.91;10475890;28;20062;-54
2023/03/23 08:48:51;;;;;;;25.65;18.95;;;;;;;14.79;63.34;97861.28;10466130;28;20067;-53
2023/03/23 08:53:50;;;;;;;24.42;17.50;;;;;;;14.87;61.47;97851.53;10490888;28;20147;-53
2023/03/23 08:58:49;;;;;;;21.75;16.02;;;;;;;15.14;61.58;97837.16;10481497;28;20460;-54
2023/03/23 09:03:49;;;;;;;20.55;15.35;;;;;;;15.70;61.20;97851.81;10467569;28;20051;-53
2023/03/23 09:08:48;;;;;;;19.67;15.00;;;;;;;15.97;57.31;97845.16;10489739;28;20067;-54
2023/03/23 09:13:47;;;;;;;19.00;14.60;;;;;;;16.12;54.61;97841.38;10435961;28;20137;-54
2023/03/23 09:18:46;;;;;;;20.50;14.50;;;;;;;16.28;56.24;97842.75;10448499;28;20032;-54
2023/03/23 09:23:45;;;;;;;;;;;;;;;16.54;53.90;97841.28;10447120;28;20035;-54
2023/03/23 09:28:44;;;;;;;20.10;14.67;;;;;;;15.66;52.19;97844.00;10447978;28;20369;-52
2023/03/23 09:33:45;;;;;;;19.98;13.00;;;;;;;15.20;52.70;97841.38;10449609;28;20074;-54
2023/03/23 09:38:45;;;;;;;18.08;13.13;;;;;;;15.11;52.77;97846.78;10462141;28;20119;-53
2023/03/23 09:43:59;;;;;;;16.63;13.57;;;;;;;15.06;52.81;97807.69;10484850;28;20063;-54
2023/03/23 09:49:10;;;;;;;17.23;13.77;;;;;;;15.27;53.18;97814.25;10466157;28;20111;-53
2023/03/23 09:54:19;;;;;;;18.25;13.43;;;;;;;15.50;52.37;97826.03;10467805;28;20126;-55
2023/03/23 09:59:31;;;;;;;20.02;14.68;;;;;;;15.41;51.29;97824.44;10480326;28;20118;-54
2023/03/23 10:04:41;;;;;;;19.00;13.82;;;;;;;15.30;51.27;97821.19;10466454;28;20119;-52
2023/03/23 10:09:42;;;;;;;19.92;13.93;;;;;;;14.91;50.73;97776.59;10455618;28;20103;-53
2023/03/23 10:15:08;;;;;;;19.77;13.77;;;;;;;15.45;51.63;97820.88;10477751;28;20074;-53
2023/03/23 10:20:20;;;;;;;18.70;13.48;;;;;;;15.87;50.07;97818.31;10486546;28;20067;-56
2023/03/23 10:25:26;;;;;;;20.88;13.85;;;;;;;16.28;49.35;97812.19;10455602;28;20115;-54
2023/03/23 10:30:36;;;;;;;19.60;14.00;;;;;;;15.65;49.74;97815.28;10475740;28;20066;-52
2023/03/23 10:35:43;;;;;;;15.95;12.45;;;;;;;14.66;50.64;97739.56;10450157;28;20127;-53
2023/03/23 10:40:50;;;;;;;15.93;12.98;;;;;;;15.22;50.98;97814.34;10467402;28;20130;-53
2023/03/23 10:45:57;;;;;;;19.65;13.73;;;;;;;15.83;50.24;97816.66;10466235;27;20226;-53
2023/03/23 10:50:59;;;;;;;15.75;12.15;;;;;;;16.22;49.56;97814.06;10455303;28;20070;-53
2023/03/23 10:55:59;;;;;;;16.77;13.18;;;;;;;16.56;47.13;97805.41;10446249;28;20621;-54
2023/03/23 11:01:02;;;;;;;19.63;14.20;;;;;;;16.73;47.29;97798.88;10451382;28;20082;-54
2023/03/23 11:06:06;;;;;;;16.85;13.18;;;;;;;16.98;46.41;97805.28;10446268;28;20056;-54
2023/03/23 11:11:25;;;;;;;16.80;12.70;;;;;;;16.95;44.18;97794.88;10446926;28;20066;-55
2023/03/23 11:16:28;;;;;;;17.50;11.85;;;;;;;17.03;45.14;97774.56;10445940;28;20072;-54
2023/03/23 11:21:27;;;;;;;15.90;11.93;;;;;;;17.18;47.21;97776.78;10446116;28;20497;-54
2023/03/23 11:26:33;;;;;;;15.65;11.35;;;;;;;17.14;44.68;97772.50;10446706;28;20090;-54
2023/03/23 11:31:36;;;;;;;13.95;10.90;;;;;;;16.83;44.34;97765.44;10451490;28;20047;-55
2023/03/23 11:36:47;;;;;;;15.00;11.68;;;;;;;16.74;43.75;97760.41;10475306;28;20757;-54
2023/03/23 11:41:46;;;;;;;13.85;10.48;;;;;;;16.56;44.73;97734.69;10474445;28;20082;-51
2023/03/23 11:47:02;;;;;;;13.18;11.02;;;;;;;16.68;43.78;97765.84;10453370;28;20085;-54
2023/03/23 11:52:11;;;;;;;12.30;10.18;;;;;;;17.04;45.26;97755.31;10453714;28;20509;-54
2023/03/23 11:57:13;;;;;;;19.90;10.43;;;;;;;17.47;45.38;97748.84;10452903;28;20116;-54
2023/03/23 12:02:12;;;;;;;14.35;9.63;;;;;;;17.46;43.06;97745.38;10451794;28;20074;-54
2023/03/23 12:07:28;;;;;;;14.57;10.35;;;;;;;17.18;43.57;97747.91;10451388;28;20016;-56
2023/03/23 12:12:57;;;;;;;13.90;9.98;;;;;;;17.01;43.82;97750.16;10461363;28;20170;-55
2023/03/23 12:18:17;;;;;;;12.68;9.63;;;;;;;16.85;44.13;97747.94;10492928;28;20433;-55
2023/03/23 12:23:25;;;;;;;12.52;9.15;;;;;;;16.86;43.90;97749.66;10456568;28;20067;-54
2023/03/23 12:28:43;;;;;;;17.73;12.73;;;;;;;17.23;44.89;97743.41;10453228;28;20073;-54
2023/03/23 12:34:05;;;;;;;12.93;10.10;;;;;;;17.24;44.11;97739.91;10451170;28;20067;-55
2023/03/23 12:39:13;;;;;;;12.45;8.80;;;;;;;17.35;43.55;97743.09;10450702;28;20075;-53
2023/03/23 12:44:14;;;;;;;11.15;9.32;;;;;;;17.38;44.70;97744.75;10449915;28;20082;-55
2023/03/23 12:49:25;;;;;;;13.00;10.55;;;;;;;17.65;44.62;97739.59;10450594;28;20075;-55
2023/03/23 12:54:38;;;;;;;14.50;11.75;;;;;;;17.63;43.65;97733.53;10450733;28;20114;-53
2023/03/23 13:00:10;;;;;;;17.08;11.48;;;;;;;17.53;43.30;97735.56;10451102;28;20059;-54
2023/03/23 13:05:35;;;;;;;17.00;11.38;;;;;;;17.26;43.39;97724.09;10431215;28;20150;-54
2023/03/23 13:10:45;;;;;;;16.63;10.65;;;;;;;17.14;43.86;97722.69;10450358;28;20070;-54
2023/03/23 13:15:53;;;;;;;11.80;9.65;;;;;;;17.12;44.09;97719.25;10450752;28;20099;-55
2023/03/23 13:21:03;;;;;;;13.10;10.55;;;;;;;17.15;43.60;97708.69;10449871;28;20501;-54
2023/03/23 13:26:12;;;;;;;14.18;9.55;;;;;;;17.00;43.39;97711.72;10449160;28;20082;-54
2023/03/23 13:31:14;;;;;;;12.38;9.25;;;;;;;16.88;43.52;97705.91;10448869;28;20082;-54
2023/03/23 13:36:15;;;;;;;11.85;9.35;;;;;;;16.47;44.17;97699.13;10448741;28;20087;-54
2023/03/23 13:41:17;;;;;;;11.70;8.82;;;;;;;16.11;44.29;97701.72;10446622;28;20082;-53
2023/03/23 13:46:19;;;;;;;11.93;8.40;;;;;;;16.16;44.25;97694.66;10488887;28;20073;-54
2023/03/23 13:51:23;;;;;;;12.38;8.88;;;;;;;16.13;45.20;97683.38;10448981;28;20481;-55
2023/03/23 13:56:42;;;;;;;12.30;8.98;;;;;;;15.86;45.01;97680.53;10455546;28;20089;-54
2023/03/23 14:01:42;;;;;;;12.27;8.02;;;;;;;15.87;42.81;97674.41;10446288;28;20059;-54
2023/03/23 14:06:43;;;;;;;11.07;8.18;;;;;;;15.86;43.77;97670.94;10447029;28;20717;-55
2023/03/23 14:12:08;;;;;;;8.95;6.40;;;;;;;15.88;41.95;97668.28;10443284;28;20075;-56
2023/03/23 14:17:26;;;;;;;11.10;8.60;;;;;;;15.94;41.82;97667.25;10433702;28;20079;-54
2023/03/23 14:22:28;;;;;;;9.90;7.57;;;;;;;15.79;42.06;97668.50;10443954;28;20124;-54
2023/03/23 14:27:27;;;;;;;12.82;8.95;;;;;;;15.78;42.28;97661.50;10448962;28;20115;-54
2023/03/23 14:32:30;;;;;;;8.68;6.97;;;;;;;15.31;41.46;97660.81;10445376;28;20457;-54
2023/03/23 14:37:30;;;;;;;12.65;7.20;;;;;;;15.38;41.84;97662.41;10443891;28;20127;-54
2023/03/23 14:42:31;;;;;;;11.98;7.95;;;;;;;15.51;41.24;97652.53;10434385;28;20139;-55
2023/03/23 14:47:35;;;;;;;9.95;7.20;;;;;;;15.66;41.78;97652.19;10446438;28;20055;-53
2023/03/23 14:52:36;;;;;;;11.35;7.75;;;;;;;15.67;41.70;97648.69;10442005;28;20111;-55
2023/03/23 14:57:35;;;;;;;10.10;7.05;;;;;;;15.37;42.68;97650.22;10446626;28;20066;-54
2023/03/23 15:02:39;;;;;;;12.57;8.05;;;;;;;15.39;43.02;97645.81;10444293;28;20139;-55
2023/03/23 15:07:41;;;;;;;13.18;9.15;;;;;;;14.76;42.95;97533.06;10452282;28;20055;-54
2023/03/23 15:12:44;;;;;;;10.23;7.07;;;;;;;15.43;43.23;97639.63;10453433;28;20562;-55
2023/03/23 15:17:45;;;;;;;10.05;7.22;;;;;;;15.44;43.31;97634.34;10453035;28;20055;-55
2023/03/23 15:22:46;;;;;;;10.27;8.02;;;;;;;15.14;43.16;97604.53;10451620;28;20071;-55
2023/03/23 15:28:27;;;;;;;10.45;7.60;;;;;;;15.00;43.17;97636.16;10449111;28;20097;-54
2023/03/23 15:33:27;;;;;;;12.07;7.82;;;;;;;15.03;43.22;97625.63;10452971;28;20473;-54
2023/03/23 15:38:31;;;;;;;11.05;7.13;;;;;;;14.89;42.86;97640.75;10453032;28;20123;-54
2023/03/23 15:43:35;;;;;;;12.52;7.50;;;;;;;14.91;42.84;97638.97;10453754;28;20060;-55
2023/03/23 15:48:51;;;;;;;9.98;7.05;;;;;;;14.83;43.30;97635.66;10452419;28;20064;-53
2023/03/23 15:53:51;;;;;;;9.85;7.55;;;;;;;14.85;43.18;97630.38;10447985;28;20463;-53
2023/03/23 15:58:51;;;;;;;12.73;7.88;;;;;;;14.85;43.18;97633.88;10451537;28;20071;-53
2023/03/23 16:03:51;;;;;;;14.32;11.02;;;;;;;14.81;43.39;97640.91;10451601;28;20165;-53
2023/03/23 16:08:50;;;;;;;11.45;8.52;;;;;;;14.75;43.76;97648.84;10452253;28;20063;-53
2023/03/23 16:13:49;;;;;;;16.80;10.35;;;;;;;14.73;43.85;97647.16;10451086;28;20079;-54
2023/03/23 16:18:48;;;;;;;17.52;11.80;;;;;;;14.36;44.26;97630.44;10431803;28;20155;-53
2023/03/23 16:23:49;;;;;;;19.00;11.95;;;;;;;14.41;44.60;97644.25;10447673;28;20107;-55
2023/03/23 16:28:48;;;;;;;31.42;13.13;;;;;;;14.17;45.62;97614.22;10450708;28;20134;-53
2023/03/23 16:33:47;;;;;;;21.85;16.50;;;;;;;14.18;46.69;97642.03;10452735;28;20485;-52
2023/03/23 16:38:46;;;;;;;29.65;20.35;;;;;;;13.94;47.83;97645.06;10451205;28;20123;-52
2023/03/23 16:43:45;;;;;;;;;;;;;;;13.71;48.39;97656.72;10444615;28;20028;-52
2023/03/23 16:48:43;;;;;;;42.88;26.33;;;;;;;13.48;50.23;97657.00;10445489;28;20000;-54
2023/03/23 16:53:43;;;;;;;;;;;;;;;13.24;51.13;97663.44;10447922;28;20028;-52
2023/03/23 16:58:42;;;;;;;36.60;22.43;;;;;;;13.00;52.21;97663.72;10446782;28;19964;-54
2023/03/23 17:03:41;;;;;;;36.25;23.52;;;;;;;12.78;52.62;97661.38;10444419;28;20035;-51
2023/03/23 17:08:40;;;;;;;25.73;17.63;;;;;;;12.49;53.01;97654.75;10443510;28;20549;-52
2023/03/23 17:13:40;;;;;;;24.00;16.42;;;;;;;12.07;54.30;97654.25;10446342;28;20477;-52
2023/03/23 17:18:39;;;;;;;19.40;14.20;;;;;;;11.84;54.90;97667.44;10445712;28;20143;-53
2023/03/23 17:23:38;;;;;;;22.20;14.07;;;;;;;11.58;55.89;97675.41;10442425;28;20103;-53
2023/03/23 17:28:37;;;;;;;22.92;14.60;;;;;;;11.38;56.40;97678.13;10444052;28;20036;-53
2023/03/23 17:33:36;;;;;;;22.00;14.70;;;;;;;11.13;57.30;97676.53;10444340;28;20425;-52
2023/03/23 17:38:35;;;;;;;25.70;16.70;;;;;;;11.00;57.56;97676.56;10444235;28;20032;-52
2023/03/23 17:43:35;;;;;;;38.30;27.92;;;;;;;10.91;58.29;97697.38;10443478;28;20034;-53
2023/03/23 17:48:34;;;;;;;49.08;34.05;;;;;;;10.65;60.26;97705.19;10440011;28;20109;-53
2023/03/23 17:53:34;;;;;;;52.83;36.83;;;;;;;10.60;61.26;97702.63;10444044;28;20063;-54
2023/03/23 17:58:34;;;;;;;41.35;29.88;;;;;;;10.21;64.00;97703.53;10444197;28;20561;-52
2023/03/23 18:03:33;;;;;;;49.40;30.85;;;;;;;10.22;63.99;97714.78;10444116;28;20071;-52
2023/03/23 18:08:33;;;;;;;;;;;;;;;10.19;64.00;97721.69;10444131;28;20119;-54
2023/03/23 18:13:34;;;;;;;37.65;26.48;;;;;;;10.12;62.98;97725.16;10443105;28;20329;-51
2023/03/23 18:18:33;;;;;;;39.45;25.00;;;;;;;10.06;63.52;97732.06;10443356;28;20474;-51
2023/03/23 18:23:34;;;;;;;41.47;28.90;;;;;;;9.92;64.22;97732.03;10443627;28;20131;-53
2023/03/23 18:28:34;;;;;;;42.72;28.55;;;;;;;9.77;64.37;97722.53;10442571;28;20064;-54
2023/03/23 18:33:37;;;;;;;56.35;37.00;;;;;;;9.69;64.75;97732.84;10474943;27;20067;-54
2023/03/23 18:38:36;;;;;;;78.15;50.22;;;;;;;9.58;66.11;97750.09;10440436;28;20059;-53
2023/03/23 18:43:35;;;;;;;96.90;61.80;;;;;;;9.43;66.80;97752.66;10420780;28;20044;-53
2023/03/23 18:48:34;;;;;;;;;;;;;;;9.26;67.76;97755.16;10360578;28;20057;-52
2023/03/23 18:53:34;;;;;;;59.90;35.10;;;;;;;9.18;67.28;97760.28;10358911;28;20441;-52
2023/03/23 18:58:34;;;;;;;67.97;46.40;;;;;;;9.07;68.46;97756.78;10359802;28;20136;-51
2023/03/23 19:03:34;;;;;;;61.53;41.40;;;;;;;9.04;68.35;97761.94;10359058;28;20533;-51
2023/03/23 19:08:33;;;;;;;57.63;39.78;;;;;;;8.74;69.84;97748.00;10359827;28;20183;-52
2023/03/23 19:13:32;;;;;;;82.78;49.13;;;;;;;8.87;69.72;97783.41;10359111;28;20091;-54
2023/03/23 19:18:31;;;;;;;;;;;;;;;8.78;70.25;97785.94;10360017;28;20119;-53
2023/03/23 19:23:30;;;;;;;92.90;55.05;;;;;;;8.60;71.81;97783.22;10339163;28;20002;-53
2023/03/23 19:28:29;;;;;;;67.78;42.13;;;;;;;8.49;72.34;97785.75;10380943;28;20036;-52
2023/03/23 19:33:28;;;;;;;;;;;;;;;8.45;72.36;97790.00;10398378;28;20498;-52
2023/03/23 19:38:28;;;;;;;77.28;47.85;;;;;;;8.39;72.58;97791.69;10399253;28;20392;-52
2023/03/23 19:43:27;;;;;;;64.38;41.35;;;;;;;8.28;72.88;97800.22;10398214;28;20076;-52
2023/03/23 19:48:26;;;;;;;52.33;33.97;;;;;;;8.21;73.37;97801.03;10398438;28;20064;-52
2023/03/23 19:53:25;;;;;;;;;;;;;;;8.09;73.72;97801.78;10405927;28;20124;-52
2023/03/23 19:58:25;;;;;;;79.85;48.38;;;;;;;8.03;74.29;97812.03;10406577;28;19920;-52
2023/03/23 20:03:25;;;;;;;112.95;68.50;;;;;;;8.01;75.00;97812.88;10406103;28;20135;-53
2023/03/23 20:08:24;;;;;;;91.50;54.58;;;;;;;7.96;75.15;97819.72;10404786;28;20131;-51
2023/03/23 20:13:22;;;;;;;95.40;50.90;;;;;;;7.92;75.53;97810.19;10404438;28;20037;-51
2023/03/23 20:18:21;;;;;;;118.43;62.92;;;;;;;7.84;76.37;97811.00;10404660;28;20024;-51
2023/03/23 20:23:21;;;;;;;136.48;73.30;;;;;;;7.83;76.47;97813.56;10401759;28;20545;-51
2023/03/23 20:28:20;;;;;;;137.13;78.38;;;;;;;7.81;76.69;97812.69;10425822;28;20648;-51
2023/03/23 20:33:19;;;;;;;;;;;;;;;7.78;76.97;97810.94;10413936;28;20119;-52
2023/03/23 20:38:18;;;;;;;126.43;79.73;;;;;;;7.75;77.26;97804.84;10405868;28;20135;-53
2023/03/23 20:43:17;;;;;;;97.70;57.00;;;;;;;7.64;77.77;97802.19;10405822;28;20350;-53
2023/03/23 20:48:16;;;;;;;99.03;59.88;;;;;;;7.57;77.79;97801.22;10404819;28;20107;-52
2023/03/23 20:53:15;;;;;;;75.20;43.08;;;;;;;7.52;78.11;97807.19;10405453;28;20055;-52
2023/03/23 20:58:14;;;;;;;;;;;;;;;7.46;77.96;97802.81;10404993;28;22029;-53
2023/03/23 21:03:14;;;;;;;72.57;41.42;;;;;;;7.41;78.44;97799.31;10403727;28;20019;-51
2023/03/23 21:08:16;;;;;;;70.72;42.03;;;;;;;7.26;78.59;97799.94;10404810;28;20577;-50
2023/03/23 21:13:17;;;;;;;76.38;48.40;;;;;;;6.85;79.29;97740.94;10404358;28;20068;-53
2023/03/23 21:18:16;;;;;;;85.28;51.97;;;;;;;7.12;79.89;97786.00;10403718;28;20115;-52
2023/03/23 21:23:15;;;;;;;92.72;53.80;;;;;;;7.01;80.02;97791.03;10402529;28;20024;-51
2023/03/23 21:28:16;;;;;;;100.22;61.75;;;;;;;6.95;80.25;97796.09;10402549;28;20120;-53
2023/03/23 21:33:15;;;;;;;105.13;64.43;;;;;;;6.92;80.39;97793.47;10402922;28;20128;-54
2023/03/23 21:38:18;;;;;;;97.25;62.28;;;;;;;6.90;80.82;97795.16;10402673;28;20124;-53
2023/03/23 21:43:17;;;;;;;102.93;64.05;;;;;;;6.88;81.12;97796.84;10403275;28;20107;-51
2023/03/23 21:48:16;;;;;;;;;;;;;;;5.62;80.62;97610.25;10402107;28;20108;-51
2023/03/23 21:53:17;;;;;;;178.50;98.18;;;;;;;6.65;80.81;97788.78;10415170;28;19920;-52
2023/03/23 21:58:21;;;;;;;130.75;77.10;;;;;;;6.66;81.49;97812.03;10401092;28;20119;-51
2023/03/23 22:03:22;;;;;;;107.82;64.63;;;;;;;6.58;81.80;97798.97;10400319;28;20131;-52
2023/03/23 22:08:27;;;;;;;105.05;62.03;;;;;;;6.49;82.17;97804.03;10400696;28;20223;-52
2023/03/23 22:13:27;;;;;;;131.45;86.53;;;;;;;6.46;81.82;97803.97;10400959;28;20127;-52
2023/03/23 22:18:27;;;;;;;75.38;48.85;;;;;;;6.46;82.29;97805.69;10401952;28;20123;-52
2023/03/23 22:23:26;;;;;;;78.60;49.35;;;;;;;6.31;82.06;97781.38;10401369;28;20103;-52
2023/03/23 22:28:25;;;;;;;;;;;;;;;6.39;81.59;97795.25;10403267;28;20079;-50
2023/03/23 22:33:24;;;;;;;89.47;54.00;;;;;;;6.34;82.45;97796.91;10404994;28;19967;-52
2023/03/23 22:38:23;;;;;;;144.32;85.40;;;;;;;6.24;82.50;97802.75;10404756;28;20032;-52
2023/03/23 22:43:23;;;;;;;108.32;63.97;;;;;;;6.19;83.20;97804.38;10404128;28;20041;-52
2023/03/23 22:48:23;;;;;;;175.50;100.72;;;;;;;5.98;83.44;97773.97;10404200;28;20537;-52
2023/03/23 22:53:24;;;;;;;145.60;87.50;;;;;;;6.06;83.39;97795.56;10404566;28;20063;-52
2023/03/23 22:58:25;;;;;;;70.55;43.70;;;;;;;6.00;83.17;97792.00;10404351;28;20077;-52
2023/03/23 23:03:25;;;;;;;51.25;35.08;;;;;;;5.90;83.48;97801.28;10402865;28;20063;-52
2023/03/23 23:08:26;;;;;;;45.55;28.92;;;;;;;5.85;83.50;97803.78;10402653;28;20434;-52
2023/03/23 23:13:26;;;;;;;47.72;28.80;;;;;;;5.80;83.69;97789.94;10403360;28;20068;-53